Time;durP1;ratioP1;P1;durP2;ratioP2;P2;SDS_P1;SDS_P2;PMS_P1;PMS_P2;Temp;Humidity;BMP_temperature;BMP_pressure;BME280_temperature;BME280_humidity;BME280_pressure;Samples;Min_cycle;Max_cycle;Signal;HPM_P1;HPM_P2
2023/04/09 00:02:15;;;;;;;114.85;58.95;;;9.80;99.90;;;;;;4772936;30;20193;-77
2023/04/09 00:04:41;;;;;;;113.95;59.15;;;9.80;99.90;;;;;;4789806;30;20402;-76
2023/04/09 00:07:06;;;;;;;118.78;60.15;;;9.80;99.90;;;;;;4773653;30;20258;-76
2023/04/09 00:09:32;;;;;;;118.22;60.15;;;9.80;99.90;;;;;;4788956;30;20224;-78
2023/04/09 00:11:58;;;;;;;115.38;60.63;;;9.80;99.90;;;;;;4788868;30;20245;-77
2023/04/09 00:14:24;;;;;;;114.55;59.33;;;9.80;99.90;;;;;;4789604;30;20707;-76
2023/04/09 00:16:50;;;;;;;113.20;58.10;;;9.70;99.90;;;;;;4789612;30;20637;-76
2023/04/09 00:19:15;;;;;;;108.05;55.03;;;9.70;99.90;;;;;;4788759;30;20201;-77
2023/04/09 00:21:41;;;;;;;106.13;55.78;;;9.70;99.90;;;;;;4788997;30;20253;-76
2023/04/09 00:24:07;;;;;;;100.22;52.53;;;9.70;99.90;;;;;;4789074;30;20553;-76
2023/04/09 00:26:33;;;;;;;92.60;49.28;;;9.70;99.90;;;;;;4789147;30;20200;-77
2023/04/09 00:28:59;;;;;;;91.32;48.47;;;9.70;99.90;;;;;;4788607;30;20277;-77
2023/04/09 00:31:25;;;;;;;97.97;50.45;;;9.60;99.90;;;;;;4773088;30;20605;-76
2023/04/09 00:33:51;;;;;;;95.47;49.08;;;9.50;99.90;;;;;;4772669;30;20193;-77
2023/04/09 00:36:16;;;;;;;90.75;48.65;;;9.60;99.90;;;;;;4758008;30;20199;-75
2023/04/09 00:38:42;;;;;;;94.13;50.58;;;9.50;99.90;;;;;;4772485;30;20614;-76
2023/04/09 00:41:08;;;;;;;94.00;50.42;;;9.50;99.90;;;;;;4772431;30;20216;-76
2023/04/09 00:43:34;;;;;;;105.38;52.85;;;9.60;99.90;;;;;;4789191;30;20216;-75
2023/04/09 00:46:00;;;;;;;100.75;53.08;;;9.50;99.90;;;;;;4773148;30;20605;-77
2023/04/09 00:48:26;;;;;;;95.75;52.13;;;9.50;99.90;;;;;;4772512;30;20558;-76
2023/04/09 00:50:52;;;;;;;101.25;51.63;;;9.50;99.90;;;;;;4788213;30;20219;-76
2023/04/09 00:53:19;;;;;;;102.40;53.13;;;9.50;99.90;;;;;;4757726;30;20192;-76
2023/04/09 00:55:45;;;;;;;97.80;52.22;;;9.50;99.90;;;;;;4788380;30;20237;-76
2023/04/09 00:58:11;;;;;;;92.05;43.17;;;9.50;99.90;;;;;;4772526;30;20200;-76
2023/04/09 01:00:37;;;;;;;74.00;41.45;;;9.50;99.90;;;;;;4772467;30;20705;-75
2023/04/09 01:03:05;;;;;;;67.78;39.10;;;9.50;99.90;;;;;;4757494;30;20269;-75
2023/04/09 01:05:53;;;;;;;73.65;38.47;;;9.40;99.90;;;;;;4788438;30;20211;-76
2023/04/09 01:08:44;;;;;;;68.35;38.90;;;9.50;99.90;;;;;;4788990;30;20181;-76
2023/04/09 01:11:25;;;;;;;60.10;34.85;;;9.40;99.90;;;;;;4788413;30;20204;-76
2023/04/09 01:14:12;;;;;;;60.35;33.95;;;9.50;99.90;;;;;;4757376;30;20188;-76
2023/04/09 01:16:46;;;;;;;70.97;35.30;;;9.50;99.90;;;;;;4754678;30;20232;-75
2023/04/09 01:19:42;;;;;;;59.97;33.75;;;9.50;99.90;;;;;;4788558;30;20172;-77
2023/04/09 01:22:23;;;;;;;60.20;34.28;;;9.40;99.90;;;;;;4772184;30;20235;-76
2023/04/09 01:25:08;;;;;;;64.88;36.03;;;9.40;99.90;;;;;;4772001;30;20246;-75
2023/04/09 01:28:19;;;;;;;62.50;34.85;;;9.40;99.90;;;;;;4772790;30;20271;-76
2023/04/09 01:30:51;;;;;;;61.63;34.83;;;9.40;99.90;;;;;;4770392;30;20207;-77
2023/04/09 01:33:19;;;;;;;64.18;36.15;;;9.40;99.90;;;;;;4757269;30;20652;-77
2023/04/09 01:35:47;;;;;;;65.00;36.28;;;9.40;99.90;;;;;;4771910;30;20246;-76
2023/04/09 01:38:14;;;;;;;63.63;35.45;;;9.40;99.90;;;;;;4788490;30;20528;-76
2023/04/09 01:40:41;;;;;;;62.53;33.88;;;9.40;99.90;;;;;;4788404;30;20207;-78
2023/04/09 01:43:07;;;;;;;63.83;35.55;;;9.30;99.90;;;;;;4788526;30;20193;-76
2023/04/09 01:45:33;;;;;;;60.72;35.42;;;9.40;99.90;;;;;;4771981;30;20189;-78
2023/04/09 01:48:00;;;;;;;62.30;35.92;;;9.30;99.90;;;;;;4788004;30;20195;-79
2023/04/09 01:50:26;;;;;;;63.28;36.25;;;9.40;99.90;;;;;;4757164;30;20212;-76
2023/04/09 01:52:52;;;;;;;62.03;34.25;;;9.40;99.90;;;;;;4772351;30;20570;-76
2023/04/09 01:55:18;;;;;;;67.75;35.33;;;9.40;99.90;;;;;;4771476;30;20294;-78
2023/04/09 01:57:44;;;;;;;60.10;33.10;;;9.40;99.90;;;;;;4756858;30;20253;-77
2023/04/09 02:00:10;;;;;;;55.72;31.85;;;9.40;99.90;;;;;;4756969;30;20223;-76
2023/04/09 02:02:52;;;;;;;56.38;30.50;;;9.40;99.90;;;;;;4772954;30;20211;-78
2023/04/09 02:05:22;;;;;;;60.10;32.60;;;9.40;99.90;;;;;;4771960;30;20213;-78
2023/04/09 02:07:53;;;;;;;61.88;32.58;;;9.40;99.90;;;;;;4771466;30;20668;-79
2023/04/09 02:10:23;;;;;;;50.85;29.70;;;9.40;99.90;;;;;;4771655;30;20170;-78
2023/04/09 02:12:51;;;;;;;54.00;31.25;;;9.40;99.90;;;;;;4773244;30;20239;-79
2023/04/09 02:15:19;;;;;;;54.70;31.45;;;9.40;99.90;;;;;;4760327;30;20677;-76
2023/04/09 02:17:45;;;;;;;55.22;30.30;;;9.40;99.90;;;;;;4775000;30;20641;-78
2023/04/09 02:20:15;;;;;;;53.47;30.42;;;9.40;99.90;;;;;;4775043;30;20195;-78
2023/04/09 02:22:40;;;;;;;52.42;29.33;;;9.40;99.90;;;;;;4791163;30;20661;-77
2023/04/09 02:25:06;;;;;;;52.72;30.25;;;9.40;99.90;;;;;;4760838;30;20242;-78
2023/04/09 02:27:32;;;;;;;53.85;30.80;;;9.40;99.90;;;;;;4760049;30;20208;-76
2023/04/09 02:29:58;;;;;;;52.58;30.20;;;9.40;99.90;;;;;;4775508;30;20231;-75
2023/04/09 02:32:24;;;;;;;53.15;30.55;;;9.40;99.90;;;;;;4775475;30;20236;-77
2023/04/09 02:34:49;;;;;;;44.83;27.02;;;9.40;99.90;;;;;;4791270;30;20189;-76
2023/04/09 02:37:15;;;;;;;48.65;26.58;;;9.40;99.90;;;;;;4790776;30;20185;-76
2023/04/09 02:39:41;;;;;;;45.22;27.05;;;9.30;99.90;;;;;;4774757;30;20272;-76
2023/04/09 02:42:07;;;;;;;47.28;27.70;;;9.30;99.90;;;;;;4775375;30;20614;-76
2023/04/09 02:44:33;;;;;;;48.30;27.83;;;9.30;99.90;;;;;;4759614;30;20196;-76
2023/04/09 02:46:59;;;;;;;46.78;27.00;;;9.30;99.90;;;;;;4774654;30;20732;-76
2023/04/09 02:49:25;;;;;;;49.45;27.67;;;9.30;99.90;;;;;;4774587;30;20193;-76
2023/04/09 02:51:50;;;;;;;49.70;28.10;;;9.30;99.90;;;;;;4775181;30;20277;-76
2023/04/09 02:54:16;;;;;;;51.40;29.25;;;9.30;99.90;;;;;;4759486;29;20240;-76
2023/04/09 02:56:42;;;;;;;50.33;29.60;;;9.30;99.90;;;;;;4760465;30;20279;-76
2023/04/09 02:59:08;;;;;;;48.70;30.17;;;9.20;99.90;;;;;;4774305;30;20287;-76
2023/04/09 03:01:34;;;;;;;51.70;28.88;;;9.20;99.90;;;;;;4759788;30;20197;-76
2023/04/09 03:04:00;;;;;;;52.28;29.52;;;9.20;99.90;;;;;;4774470;30;20204;-75
2023/04/09 03:06:26;;;;;;;53.92;31.13;;;9.20;99.90;;;;;;4774408;30;20188;-75
2023/04/09 03:08:52;;;;;;;54.90;30.40;;;9.20;99.90;;;;;;4774929;30;20520;-76
2023/04/09 03:11:18;;;;;;;49.58;29.58;;;9.20;99.90;;;;;;4760034;30;20289;-76
2023/04/09 03:13:44;;;;;;;54.90;30.35;;;9.20;99.90;;;;;;4774850;30;20193;-77
2023/04/09 03:16:09;;;;;;;58.22;31.48;;;9.20;99.90;;;;;;4774458;30;20185;-76
2023/04/09 03:18:35;;;;;;;58.60;32.42;;;9.10;99.90;;;;;;4759321;30;20200;-76
2023/04/09 03:21:08;;;;;;;57.72;32.13;;;9.10;99.90;;;;;;4759589;30;20198;-76
2023/04/09 03:23:36;;;;;;;59.80;32.65;;;9.00;99.90;;;;;;4773101;30;20184;-76
2023/04/09 03:26:05;;;;;;;59.25;31.90;;;9.00;99.90;;;;;;4773903;30;20201;-75
2023/04/09 03:28:38;;;;;;;59.85;33.08;;;9.00;99.90;;;;;;4774220;30;20189;-76
2023/04/09 03:31:03;;;;;;;56.78;31.48;;;9.00;99.90;;;;;;4758925;30;20234;-75
2023/04/09 03:33:34;;;;;;;56.78;30.90;;;9.00;99.90;;;;;;4774161;30;20254;-76
2023/04/09 03:36:00;;;;;;;57.83;31.85;;;9.00;99.90;;;;;;4773914;30;20622;-76
2023/04/09 03:38:49;;;;;;;56.13;30.95;;;9.00;99.90;;;;;;4773627;30;20204;-76
2023/04/09 03:41:26;;;;;;;58.35;31.25;;;9.00;99.90;;;;;;4773733;30;20195;-76
2023/04/09 03:43:53;;;;;;;60.22;32.85;;;9.00;99.90;;;;;;4773591;30;20288;-75
2023/04/09 03:46:24;;;;;;;62.72;33.28;;;9.00;99.90;;;;;;4773692;30;20612;-75
2023/04/09 03:48:50;;;;;;;58.63;32.90;;;9.00;99.90;;;;;;4758933;30;20291;-75
2023/04/09 03:51:17;;;;;;;57.08;32.90;;;9.00;99.90;;;;;;4759254;30;20247;-75
2023/04/09 03:53:48;;;;;;;62.40;33.38;;;9.00;99.90;;;;;;4773731;30;20275;-75
2023/04/09 03:56:15;;;;;;;58.92;32.97;;;9.00;99.90;;;;;;4773235;30;20240;-75
2023/04/09 03:58:41;;;;;;;61.03;33.53;;;9.00;99.90;;;;;;4774044;30;20223;-75
2023/04/09 04:01:09;;;;;;;60.30;32.95;;;9.00;99.90;;;;;;4773292;30;20235;-75
2023/04/09 04:03:40;;;;;;;57.00;33.58;;;8.90;99.90;;;;;;4774026;30;20191;-75
2023/04/09 04:06:14;;;;;;;59.50;31.30;;;9.00;99.90;;;;;;4760291;30;20211;-76
2023/04/09 04:08:58;;;;;;;58.42;32.58;;;9.00;99.90;;;;;;4775865;30;20184;-77
2023/04/09 04:11:33;;;;;;;55.72;31.42;;;9.00;99.90;;;;;;4773340;30;20216;-75
2023/04/09 04:13:59;;;;;;;58.25;31.65;;;9.00;99.90;;;;;;4773818;30;20265;-75
2023/04/09 04:16:25;;;;;;;59.83;33.50;;;8.90;99.90;;;;;;4774149;30;20185;-75
2023/04/09 04:18:52;;;;;;;58.28;32.83;;;8.90;99.90;;;;;;4758339;30;20209;-75
2023/04/09 04:21:18;;;;;;;64.03;35.35;;;8.90;99.90;;;;;;4773035;30;20646;-76
2023/04/09 04:23:53;;;;;;;58.72;33.33;;;8.90;99.90;;;;;;4773407;30;20188;-76
2023/04/09 04:26:23;;;;;;;62.25;32.67;;;8.90;99.90;;;;;;4758593;30;20189;-75
2023/04/09 04:28:49;;;;;;;58.25;32.78;;;8.90;99.90;;;;;;4773560;30;20213;-75
2023/04/09 04:31:27;;;;;;;58.38;32.33;;;8.90;99.90;;;;;;4759938;30;20311;-75
2023/04/09 04:33:55;;;;;;;64.18;35.13;;;8.90;99.90;;;;;;4773238;30;20264;-76
2023/04/09 04:36:21;;;;;;;63.00;34.10;;;8.90;99.90;;;;;;4773462;30;20200;-75
2023/04/09 04:38:50;;;;;;;61.05;34.15;;;8.90;99.90;;;;;;4773603;30;20695;-76
2023/04/09 04:41:23;;;;;;;59.83;33.97;;;8.90;99.90;;;;;;4759360;30;20231;-75
2023/04/09 04:44:03;;;;;;;66.07;34.50;;;8.90;99.90;;;;;;4760349;30;20188;-76
2023/04/09 04:46:29;;;;;;;59.03;33.78;;;8.90;99.90;;;;;;4772576;30;20662;-75
2023/04/09 04:48:55;;;;;;;60.35;33.67;;;8.90;99.90;;;;;;4788858;30;20189;-76
2023/04/09 04:51:21;;;;;;;61.33;34.08;;;8.90;99.90;;;;;;4789071;30;20229;-75
2023/04/09 04:53:59;;;;;;;57.55;34.83;;;8.90;99.90;;;;;;4773476;30;20184;-78
2023/04/09 04:56:25;;;;;;;60.42;33.67;;;8.90;99.90;;;;;;4757915;30;20195;-76
2023/04/09 04:59:01;;;;;;;61.75;35.70;;;9.00;99.90;;;;;;4772880;30;20199;-77
2023/04/09 05:01:32;;;;;;;57.00;34.35;;;9.00;99.90;;;;;;4772737;30;20208;-76
2023/04/09 05:04:01;;;;;;;60.72;34.75;;;9.00;99.90;;;;;;4772645;30;20195;-77
2023/04/09 05:06:32;;;;;;;63.20;35.65;;;9.00;99.90;;;;;;4772250;30;20188;-76
2023/04/09 05:09:00;;;;;;;63.70;35.45;;;9.00;99.90;;;;;;4772839;30;20710;-77
2023/04/09 05:11:32;;;;;;;64.38;35.13;;;9.00;99.90;;;;;;4758673;30;20237;-76
2023/04/09 05:13:58;;;;;;;61.80;35.53;;;9.00;99.90;;;;;;4773133;30;20189;-76
2023/04/09 05:16:24;;;;;;;64.10;36.28;;;9.00;99.90;;;;;;4788636;30;20211;-75
2023/04/09 05:19:00;;;;;;;61.17;35.63;;;9.00;99.90;;;;;;4772839;30;20193;-77
2023/04/09 05:21:26;;;;;;;60.45;35.15;;;9.00;99.90;;;;;;4772519;30;20196;-77
2023/04/09 05:23:54;;;;;;;62.20;35.45;;;9.00;99.90;;;;;;4758020;30;20193;-76
2023/04/09 05:26:20;;;;;;;61.05;36.53;;;9.00;99.90;;;;;;4757277;30;20188;-77
2023/04/09 05:28:53;;;;;;;67.05;36.60;;;9.00;99.90;;;;;;4773342;30;20353;-76
2023/04/09 05:31:21;;;;;;;65.32;35.97;;;9.00;99.90;;;;;;4790606;30;20232;-77
2023/04/09 05:33:55;;;;;;;61.70;35.58;;;9.00;99.90;;;;;;4773824;30;20193;-76
2023/04/09 05:36:31;;;;;;;63.83;35.85;;;9.00;99.90;;;;;;4772779;30;20199;-76
2023/04/09 05:38:57;;;;;;;70.03;38.05;;;9.00;99.90;;;;;;4772824;30;20197;-77
2023/04/09 05:41:23;;;;;;;62.10;36.75;;;9.00;99.90;;;;;;4758619;30;20255;-77
2023/04/09 05:44:07;;;;;;;75.70;38.58;;;9.00;99.90;;;;;;4775627;30;20680;-77
2023/04/09 05:46:36;;;;;;;65.75;38.38;;;9.00;99.90;;;;;;4758054;30;20192;-76
2023/04/09 05:49:03;;;;;;;70.32;38.38;;;9.00;99.90;;;;;;4776104;30;20660;-77
2023/04/09 05:51:30;;;;;;;66.65;39.28;;;9.10;99.90;;;;;;4776015;30;20235;-78
2023/04/09 05:53:58;;;;;;;73.32;38.85;;;9.10;99.90;;;;;;4775973;29;20193;-77
2023/04/09 05:56:24;;;;;;;71.07;38.47;;;9.10;99.90;;;;;;4776410;30;20189;-78
2023/04/09 05:58:54;;;;;;;66.85;38.03;;;9.00;99.90;;;;;;4775450;30;20241;-78
2023/04/09 06:01:20;;;;;;;58.65;36.05;;;9.10;99.90;;;;;;4791948;30;20253;-78
2023/04/09 06:03:46;;;;;;;49.47;31.02;;;9.10;99.90;;;;;;4775683;30;20279;-78
2023/04/09 06:06:12;;;;;;;49.58;30.25;;;9.10;99.90;;;;;;4775850;30;20722;-78
2023/04/09 06:08:38;;;;;;;53.80;29.58;;;9.00;99.90;;;;;;4775345;30;20267;-78
2023/04/09 06:11:07;;;;;;;52.83;29.67;;;9.00;99.90;;;;;;4791631;30;20622;-78
2023/04/09 06:13:33;;;;;;;54.75;30.92;;;9.10;99.90;;;;;;4776982;30;20215;-80
2023/04/09 06:15:59;;;;;;;52.42;29.77;;;9.10;99.90;;;;;;4791827;30;20183;-78
2023/04/09 06:18:25;;;;;;;48.13;29.00;;;9.10;99.90;;;;;;4760360;30;20196;-78
2023/04/09 06:21:06;;;;;;;48.53;28.77;;;9.10;99.90;;;;;;4791823;30;20551;-77
2023/04/09 06:23:34;;;;;;;49.70;27.98;;;9.00;99.90;;;;;;4775817;30;20185;-77
2023/04/09 06:26:00;;;;;;;52.05;29.33;;;9.00;99.90;;;;;;4775163;30;20191;-77
2023/04/09 06:28:27;;;;;;;51.25;28.88;;;9.00;99.90;;;;;;4792536;30;20227;-77
2023/04/09 06:30:54;;;;;;;47.75;28.98;;;9.00;99.90;;;;;;4790873;30;20188;-77
2023/04/09 06:33:20;;;;;;;51.10;29.77;;;9.00;99.90;;;;;;4791114;30;20589;-78
2023/04/09 06:35:46;;;;;;;48.90;28.27;;;9.00;99.90;;;;;;4775820;30;20251;-77
2023/04/09 06:38:12;;;;;;;52.28;30.45;;;9.00;99.90;;;;;;4791562;30;20402;-78
2023/04/09 06:40:38;;;;;;;57.80;29.80;;;9.00;99.90;;;;;;4774973;30;20316;-78
2023/04/09 06:43:05;;;;;;;55.63;30.02;;;9.00;99.90;;;;;;4775406;30;20680;-77
2023/04/09 06:45:51;;;;;;;54.08;30.23;;;8.90;99.90;;;;;;4790586;29;20193;-78
2023/04/09 06:48:17;;;;;;;51.42;30.27;;;9.00;99.90;;;;;;4776530;30;20658;-78
2023/04/09 06:50:44;;;;;;;56.22;32.10;;;9.00;99.90;;;;;;4764622;30;20558;-78
2023/04/09 06:53:09;;;;;;;56.65;32.75;;;9.00;99.90;;;;;;4790982;30;20272;-78
2023/04/09 06:55:35;;;;;;;54.53;32.40;;;9.00;99.90;;;;;;4759920;30;20738;-78
2023/04/09 06:58:01;;;;;;;54.20;31.60;;;9.00;99.90;;;;;;4760501;30;20223;-78
2023/04/09 07:00:27;;;;;;;54.15;31.17;;;9.10;99.90;;;;;;4794822;30;20208;-77
2023/04/09 07:02:53;;;;;;;56.88;33.42;;;9.10;99.90;;;;;;4792521;30;20650;-78
2023/04/09 07:05:19;;;;;;;55.58;32.53;;;9.10;99.90;;;;;;4774768;30;20277;-78
2023/04/09 07:07:44;;;;;;;52.55;32.10;;;9.10;99.90;;;;;;4790508;30;20192;-78
2023/04/09 07:10:10;;;;;;;51.00;30.35;;;9.10;99.90;;;;;;4790724;30;20549;-78
2023/04/09 07:12:36;;;;;;;52.08;31.55;;;9.20;99.90;;;;;;4775153;30;20213;-78
2023/04/09 07:15:06;;;;;;;53.08;30.55;;;9.20;99.90;;;;;;4790544;30;20637;-78
2023/04/09 07:17:32;;;;;;;52.03;30.55;;;9.20;99.90;;;;;;4774971;30;20180;-78
2023/04/09 07:19:58;;;;;;;52.60;32.22;;;9.20;99.90;;;;;;4790872;30;20189;-79
2023/04/09 07:22:26;;;;;;;52.78;31.30;;;9.20;99.90;;;;;;4790961;30;20323;-78
2023/04/09 07:24:52;;;;;;;56.00;32.00;;;9.30;99.90;;;;;;4790910;30;20189;-79
2023/04/09 07:27:20;;;;;;;59.13;33.40;;;9.20;99.90;;;;;;4781246;30;20656;-78
2023/04/09 07:29:46;;;;;;;55.58;32.10;;;9.20;99.90;;;;;;4790736;30;20185;-79
2023/04/09 07:32:12;;;;;;;55.80;32.83;;;9.20;99.90;;;;;;4776015;30;20777;-79
2023/04/09 07:34:37;;;;;;;58.83;34.65;;;9.20;99.90;;;;;;4774404;30;20238;-78
2023/04/09 07:37:03;;;;;;;59.28;35.10;;;9.20;99.90;;;;;;4759668;30;20246;-79
2023/04/09 07:39:29;;;;;;;61.03;35.25;;;9.20;99.90;;;;;;4760465;30;20611;-80
2023/04/09 07:41:56;;;;;;;58.65;32.88;;;9.40;99.90;;;;;;4774773;30;20196;-77
2023/04/09 07:44:22;;;;;;;53.42;31.17;;;9.50;99.90;;;;;;4790262;30;20197;-78
2023/04/09 07:46:48;;;;;;;53.90;32.15;;;9.70;99.90;;;;;;4759533;30;20200;-78
2023/04/09 07:49:13;;;;;;;54.15;31.55;;;10.10;99.90;;;;;;4774584;30;20204;-84
2023/04/09 07:51:39;;;;;;;53.30;31.80;;;10.40;99.90;;;;;;4758948;30;20224;-79
2023/04/09 07:54:05;;;;;;;54.97;30.55;;;10.60;99.90;;;;;;4775653;30;20665;-81
2023/04/09 07:56:31;;;;;;;49.40;30.60;;;10.70;99.90;;;;;;4771466;30;20241;-79
2023/04/09 07:58:57;;;;;;;53.28;30.80;;;10.80;99.90;;;;;;4771798;30;20616;-78
2023/04/09 08:01:24;;;;;;;54.53;31.60;;;10.70;99.90;;;;;;4771224;30;20193;-78
2023/04/09 08:03:50;;;;;;;57.05;33.03;;;10.60;99.90;;;;;;4771397;30;20200;-77
2023/04/09 08:06:16;;;;;;;54.88;31.92;;;10.50;99.90;;;;;;4771759;30;20193;-77
2023/04/09 08:08:42;;;;;;;55.00;32.40;;;10.60;99.90;;;;;;4771013;30;20256;-77
2023/04/09 08:11:08;;;;;;;55.83;31.35;;;10.70;99.90;;;;;;4771749;30;20276;-77
2023/04/09 08:13:34;;;;;;;50.33;29.50;;;10.70;99.90;;;;;;4771871;30;20434;-80
2023/04/09 08:16:01;;;;;;;53.95;30.38;;;10.70;99.90;;;;;;4771218;30;20192;-79
2023/04/09 08:18:27;;;;;;;58.83;31.23;;;10.70;99.90;;;;;;4770826;30;20268;-76
2023/04/09 08:20:53;;;;;;;50.38;29.92;;;10.50;99.90;;;;;;4770871;30;20344;-77
2023/04/09 08:23:19;;;;;;;54.42;30.80;;;10.50;99.90;;;;;;4761172;30;20202;-77
2023/04/09 08:25:45;;;;;;;51.45;30.35;;;10.40;99.90;;;;;;4770764;30;20193;-77
2023/04/09 08:28:10;;;;;;;51.20;29.30;;;10.30;99.90;;;;;;4769837;30;20247;-76
2023/04/09 08:30:36;;;;;;;53.25;29.77;;;10.30;99.90;;;;;;4771541;30;20202;-77
2023/04/09 08:33:02;;;;;;;54.20;30.48;;;10.30;99.90;;;;;;4770894;30;20694;-77
2023/04/09 08:35:30;;;;;;;52.58;29.98;;;10.30;99.90;;;;;;4769921;30;20189;-77
2023/04/09 08:37:56;;;;;;;54.33;30.60;;;10.30;99.90;;;;;;4770827;30;20189;-77
2023/04/09 08:40:22;;;;;;;51.58;30.00;;;10.20;99.90;;;;;;4771306;30;20614;-78
2023/04/09 08:42:57;;;;;;;60.00;30.23;;;10.20;99.90;;;;;;4769651;30;20285;-77
2023/04/09 08:45:23;;;;;;;51.28;30.42;;;10.20;99.90;;;;;;4769842;30;20226;-78
2023/04/09 08:47:49;;;;;;;55.78;29.67;;;10.20;99.90;;;;;;4770102;30;20189;-78
2023/04/09 08:50:15;;;;;;;52.83;29.83;;;10.30;99.90;;;;;;4770880;30;20196;-78
2023/04/09 08:52:44;;;;;;;50.08;27.83;;;10.30;99.90;;;;;;4770678;29;20229;-77
2023/04/09 08:55:11;;;;;;;51.47;29.25;;;10.40;99.90;;;;;;4778337;30;20298;-78
2023/04/09 08:57:38;;;;;;;47.75;27.75;;;10.40;99.90;;;;;;4772454;30;20192;-78
2023/04/09 09:00:04;;;;;;;48.60;28.30;;;10.50;99.90;;;;;;4788733;30;20280;-80
2023/04/09 09:02:30;;;;;;;45.13;27.52;;;10.50;99.90;;;;;;4788535;30;20228;-77
2023/04/09 09:04:59;;;;;;;49.40;27.52;;;10.60;99.90;;;;;;4788280;30;20189;-77
2023/04/09 09:07:28;;;;;;;47.03;26.88;;;10.60;99.90;;;;;;4772577;30;20193;-77
2023/04/09 09:10:01;;;;;;;44.35;26.55;;;10.70;99.90;;;;;;4788422;30;20192;-79
2023/04/09 09:12:33;;;;;;;46.35;27.73;;;10.80;99.90;;;;;;4772383;30;20341;-79
2023/04/09 09:14:59;;;;;;;44.28;27.30;;;10.90;99.90;;;;;;4788418;30;20336;-79
2023/04/09 09:17:25;;;;;;;46.80;27.67;;;11.10;99.90;;;;;;4788130;30;20288;-76
2023/04/09 09:19:51;;;;;;;48.65;27.98;;;11.20;99.90;;;;;;4788112;30;20217;-79
2023/04/09 09:22:16;;;;;;;47.85;27.75;;;11.20;99.90;;;;;;4771159;30;20565;-78
2023/04/09 09:24:50;;;;;;;47.20;27.98;;;11.30;99.90;;;;;;4788709;30;20634;-78
2023/04/09 09:27:35;;;;;;;47.72;27.90;;;11.30;99.90;;;;;;4791926;30;20189;-78
2023/04/09 09:30:04;;;;;;;45.35;27.42;;;11.30;99.90;;;;;;4788539;30;20188;-79
2023/04/09 09:32:30;;;;;;;46.42;28.02;;;11.30;99.90;;;;;;4788138;30;20393;-79
2023/04/09 09:35:05;;;;;;;50.90;29.27;;;11.20;99.90;;;;;;4788758;30;20525;-79
2023/04/09 09:37:31;;;;;;;46.63;27.88;;;11.20;99.90;;;;;;4772829;30;20204;-82
2023/04/09 09:39:58;;;;;;;47.50;27.73;;;11.20;99.90;;;;;;4788169;30;20261;-80
2023/04/09 09:42:25;;;;;;;49.33;29.15;;;11.30;99.90;;;;;;4788628;30;20275;-80
2023/04/09 09:44:52;;;;;;;44.28;26.85;;;11.40;99.90;;;;;;4788640;30;20218;-79
2023/04/09 09:47:19;;;;;;;47.40;28.45;;;11.40;99.90;;;;;;4790725;30;20211;-78
2023/04/09 09:49:50;;;;;;;48.70;29.52;;;11.50;99.90;;;;;;4791496;30;20263;-78
2023/04/09 09:52:23;;;;;;;44.72;27.98;;;11.50;99.90;;;;;;4772519;30;20220;-78
2023/04/09 09:54:54;;;;;;;49.03;29.02;;;11.60;99.90;;;;;;4773049;30;20283;-78
2023/04/09 09:57:23;;;;;;;46.95;28.63;;;11.60;99.90;;;;;;4790297;30;20203;-79
2023/04/09 10:00:02;;;;;;;48.90;29.10;;;11.70;99.90;;;;;;4789418;29;20181;-78
2023/04/09 10:02:50;;;;;;;49.35;28.48;;;11.80;99.90;;;;;;4772561;30;20565;-79
2023/04/09 10:05:16;;;;;;;48.45;29.63;;;12.00;99.90;;;;;;4788205;30;20618;-80
2023/04/09 10:07:43;;;;;;;47.65;29.02;;;12.30;99.90;;;;;;4774670;30;20193;-83
2023/04/09 10:10:10;;;;;;;49.45;29.48;;;12.40;99.90;;;;;;4777376;30;20189;-82
2023/04/09 10:12:36;;;;;;;48.60;28.98;;;12.50;99.90;;;;;;4779225;30;20349;-78
2023/04/09 10:15:04;;;;;;;44.80;27.70;;;12.70;99.90;;;;;;4771794;30;20268;-80
2023/04/09 10:17:31;;;;;;;40.67;27.25;;;12.90;99.90;;;;;;4771891;30;20192;-79
2023/04/09 10:20:09;;;;;;;43.70;27.85;;;13.30;99.90;;;;;;4788737;30;20736;-78
2023/04/09 10:22:35;;;;;;;48.75;29.42;;;13.70;99.90;;;;;;4771718;30;20185;-77
2023/04/09 10:25:03;;;;;;;42.40;28.10;;;13.90;99.90;;;;;;4787906;30;20669;-77
2023/04/09 10:27:30;;;;;;;43.53;28.02;;;14.20;99.90;;;;;;4787564;30;20188;-77
2023/04/09 10:29:55;;;;;;;44.20;28.58;;;14.40;99.90;;;;;;4787569;30;20412;-77
2023/04/09 10:32:25;;;;;;;49.35;29.42;;;14.60;99.90;;;;;;4771424;29;20303;-78
2023/04/09 10:34:55;;;;;;;44.13;28.45;;;14.70;99.90;;;;;;4774777;30;20201;-77
2023/04/09 10:37:22;;;;;;;44.60;28.80;;;14.70;99.90;;;;;;4774910;30;20200;-77
2023/04/09 10:39:50;;;;;;;44.63;29.27;;;14.80;99.90;;;;;;4791576;30;20626;-78
2023/04/09 10:42:44;;;;;;;43.90;29.27;;;14.90;99.90;;;;;;4791030;30;20181;-76
2023/04/09 10:45:15;;;;;;;45.40;28.90;;;15.10;99.90;;;;;;4760287;30;20204;-77
2023/04/09 10:47:42;;;;;;;44.38;28.25;;;15.10;99.90;;;;;;4775155;30;20279;-77
2023/04/09 10:50:24;;;;;;;45.33;29.00;;;15.00;99.90;;;;;;4791808;30;20255;-76
2023/04/09 10:52:59;;;;;;;49.63;28.23;;;14.90;99.90;;;;;;4775382;30;20638;-77
2023/04/09 10:55:36;;;;;;;46.03;28.20;;;15.00;99.90;;;;;;4791131;30;20311;-76
2023/04/09 10:58:06;;;;;;;43.55;27.70;;;15.00;99.90;;;;;;4775044;30;20185;-76
2023/04/09 11:00:40;;;;;;;42.50;27.60;;;15.00;99.90;;;;;;4791763;30;20185;-77
2023/04/09 11:03:22;;;;;;;45.55;29.48;;;15.10;99.90;;;;;;4776020;30;20196;-77
2023/04/09 11:05:52;;;;;;;45.08;28.38;;;15.20;99.90;;;;;;4775007;30;20299;-76
2023/04/09 11:08:18;;;;;;;40.53;26.73;;;15.40;99.90;;;;;;4774268;30;20634;-76
2023/04/09 11:10:46;;;;;;;42.67;26.15;;;15.50;99.90;;;;;;4790721;30;20216;-76
2023/04/09 11:13:17;;;;;;;42.38;27.88;;;15.50;99.90;;;;;;4790421;30;20232;-77
2023/04/09 11:15:44;;;;;;;43.03;27.90;;;15.60;99.90;;;;;;4790629;30;20200;-76
2023/04/09 11:18:24;;;;;;;46.63;27.98;;;15.80;99.90;;;;;;4773766;30;20216;-75
2023/04/09 11:20:57;;;;;;;45.38;27.63;;;15.90;99.90;;;;;;4790674;30;20212;-78
2023/04/09 11:23:23;;;;;;;39.17;26.33;;;16.00;99.90;;;;;;4790269;30;20188;-78
2023/04/09 11:25:50;;;;;;;44.80;28.13;;;16.10;99.90;;;;;;4790076;30;20189;-77
2023/04/09 11:28:17;;;;;;;41.75;27.60;;;16.10;99.90;;;;;;4773780;30;20193;-76
2023/04/09 11:30:43;;;;;;;42.03;27.13;;;16.00;99.90;;;;;;4774091;30;20199;-77
2023/04/09 11:33:09;;;;;;;41.67;27.75;;;15.90;99.90;;;;;;4792716;30;20273;-77
2023/04/09 11:35:36;;;;;;;40.55;27.20;;;15.90;99.90;;;;;;4790793;30;20200;-77
2023/04/09 11:38:07;;;;;;;43.28;27.30;;;15.80;99.90;;;;;;4760063;30;20209;-78
2023/04/09 11:40:33;;;;;;;39.58;25.75;;;15.80;99.90;;;;;;4774051;30;20659;-76
2023/04/09 11:42:59;;;;;;;41.67;25.40;;;15.70;99.90;;;;;;4773733;30;20196;-76
2023/04/09 11:45:27;;;;;;;39.40;25.65;;;15.80;99.90;;;;;;4788893;29;20212;-75
2023/04/09 11:47:53;;;;;;;36.10;24.52;;;15.90;99.90;;;;;;4773982;30;20249;-76
2023/04/09 11:50:20;;;;;;;38.50;24.52;;;16.00;99.90;;;;;;4789553;30;20276;-76
2023/04/09 11:52:46;;;;;;;35.55;23.17;;;16.10;99.90;;;;;;4789356;30;20230;-75
2023/04/09 11:55:23;;;;;;;36.78;23.60;;;16.20;99.90;;;;;;4789506;30;20232;-76
2023/04/09 11:57:51;;;;;;;33.88;23.45;;;16.20;99.80;;;;;;4789966;30;20184;-76
2023/04/09 12:00:18;;;;;;;37.15;24.73;;;16.30;99.70;;;;;;4758893;30;20242;-76
2023/04/09 12:02:46;;;;;;;37.00;25.02;;;16.30;99.60;;;;;;4789384;30;20203;-76
2023/04/09 12:05:29;;;;;;;43.55;26.80;;;16.30;99.50;;;;;;4789825;30;20189;-76
2023/04/09 12:08:01;;;;;;;36.72;24.40;;;16.40;99.20;;;;;;4773601;30;20200;-77
2023/04/09 12:10:33;;;;;;;34.45;22.92;;;16.40;99.50;;;;;;4789388;30;20185;-76
2023/04/09 12:13:05;;;;;;;33.55;23.05;;;16.40;99.00;;;;;;4772924;30;20212;-76
2023/04/09 12:15:36;;;;;;;32.53;21.65;;;16.50;98.80;;;;;;4789114;30;20185;-76
2023/04/09 12:18:02;;;;;;;32.67;22.45;;;16.50;98.60;;;;;;4775190;30;20184;-76
2023/04/09 12:20:49;;;;;;;30.70;18.80;;;16.50;98.00;;;;;;4773752;30;20181;-78
2023/04/09 12:23:16;;;;;;;28.48;20.13;;;16.40;97.90;;;;;;4758069;30;20248;-76
2023/04/09 12:25:44;;;;;;;31.80;21.10;;;16.40;97.80;;;;;;4773448;30;20238;-76
2023/04/09 12:28:15;;;;;;;30.58;20.10;;;16.40;97.70;;;;;;4788920;30;20185;-77
2023/04/09 12:30:42;;;;;;;30.48;19.90;;;16.40;97.50;;;;;;4772855;30;20188;-76
2023/04/09 12:33:07;;;;;;;28.83;19.80;;;16.40;97.30;;;;;;4789073;30;20212;-75
2023/04/09 12:35:33;;;;;;;29.88;19.50;;;16.30;97.30;;;;;;4789847;30;20251;-75
2023/04/09 12:37:59;;;;;;;26.50;18.00;;;16.30;97.30;;;;;;4772900;30;20190;-76
2023/04/09 12:40:26;;;;;;;25.95;17.52;;;16.40;97.20;;;;;;4772816;30;20189;-75
2023/04/09 12:42:52;;;;;;;27.55;18.25;;;16.30;96.40;;;;;;4788957;30;20189;-76